sensor_id;sensor_type;location;lat;lon;timestamp;temperature;humidity
364;DHT22;173;48.718;9.274;2022-09-03T00:02:23;19.10;70.10
364;DHT22;173;48.718;9.274;2022-09-03T00:05:05;19.10;70.70
364;DHT22;173;48.718;9.274;2022-09-03T00:07:48;19.20;71.10
364;DHT22;173;48.718;9.274;2022-09-03T00:13:36;19.30;70.00
364;DHT22;173;48.718;9.274;2022-09-03T00:16:13;19.20;69.80
364;DHT22;173;48.718;9.274;2022-09-03T00:18:56;19.20;69.50
364;DHT22;173;48.718;9.274;2022-09-03T00:21:43;19.20;69.50
364;DHT22;173;48.718;9.274;2022-09-03T00:24:28;19.10;68.00
364;DHT22;173;48.718;9.274;2022-09-03T00:27:06;19.20;68.10
364;DHT22;173;48.718;9.274;2022-09-03T00:29:45;19.20;68.70
364;DHT22;173;48.718;9.274;2022-09-03T00:32:48;19.30;68.20
364;DHT22;173;48.718;9.274;2022-09-03T00:38:20;19.20;67.70
364;DHT22;173;48.718;9.274;2022-09-03T00:41:24;19.10;68.20
364;DHT22;173;48.718;9.274;2022-09-03T00:47:09;19.20;68.50
364;DHT22;173;48.718;9.274;2022-09-03T00:55:29;19.10;68.80
364;DHT22;173;48.718;9.274;2022-09-03T01:07:43;19.10;67.70
364;DHT22;173;48.718;9.274;2022-09-03T01:13:06;19.00;70.20
364;DHT22;173;48.718;9.274;2022-09-03T01:16:05;19.10;70.30
364;DHT22;173;48.718;9.274;2022-09-03T01:19:06;19.10;69.10
364;DHT22;173;48.718;9.274;2022-09-03T01:24:50;19.10;68.80
364;DHT22;173;48.718;9.274;2022-09-03T01:30:42;18.90;68.50
364;DHT22;173;48.718;9.274;2022-09-03T01:33:37;19.00;70.00
364;DHT22;173;48.718;9.274;2022-09-03T01:38:59;19.10;69.10
364;DHT22;173;48.718;9.274;2022-09-03T01:41:47;19.20;68.90
364;DHT22;173;48.718;9.274;2022-09-03T01:44:57;19.10;70.80
364;DHT22;173;48.718;9.274;2022-09-03T01:50:50;19.00;69.70
364;DHT22;173;48.718;9.274;2022-09-03T01:53:43;19.10;69.80
364;DHT22;173;48.718;9.274;2022-09-03T01:59:19;19.10;69.70
364;DHT22;173;48.718;9.274;2022-09-03T02:02:01;19.00;71.00
364;DHT22;173;48.718;9.274;2022-09-03T02:04:36;19.10;70.70
364;DHT22;173;48.718;9.274;2022-09-03T02:07:08;19.00;70.30
364;DHT22;173;48.718;9.274;2022-09-03T02:09:40;18.90;70.50
364;DHT22;173;48.718;9.274;2022-09-03T02:12:14;19.00;71.00
364;DHT22;173;48.718;9.274;2022-09-03T02:14:48;18.90;70.30
364;DHT22;173;48.718;9.274;2022-09-03T02:17:18;18.90;72.30
364;DHT22;173;48.718;9.274;2022-09-03T02:19:50;18.90;72.00
364;DHT22;173;48.718;9.274;2022-09-03T02:22:22;18.90;71.20
364;DHT22;173;48.718;9.274;2022-09-03T02:24:55;18.80;71.40
364;DHT22;173;48.718;9.274;2022-09-03T02:27:25;18.80;71.60
364;DHT22;173;48.718;9.274;2022-09-03T02:29:58;18.80;72.10
364;DHT22;173;48.718;9.274;2022-09-03T02:32:31;18.80;73.10
364;DHT22;173;48.718;9.274;2022-09-03T02:35:03;18.80;71.40
364;DHT22;173;48.718;9.274;2022-09-03T02:37:35;18.60;71.50
364;DHT22;173;48.718;9.274;2022-09-03T02:40:07;18.60;73.50
364;DHT22;173;48.718;9.274;2022-09-03T02:42:39;18.60;73.70
364;DHT22;173;48.718;9.274;2022-09-03T02:45:32;18.50;74.10
364;DHT22;173;48.718;9.274;2022-09-03T02:48:00;18.50;74.70
364;DHT22;173;48.718;9.274;2022-09-03T02:50:38;18.40;73.10
364;DHT22;173;48.718;9.274;2022-09-03T02:53:10;18.40;74.00
364;DHT22;173;48.718;9.274;2022-09-03T02:57:42;18.20;74.80
364;DHT22;173;48.718;9.274;2022-09-03T03:00:16;18.20;75.30
364;DHT22;173;48.718;9.274;2022-09-03T03:02:48;18.10;75.20
364;DHT22;173;48.718;9.274;2022-09-03T03:05:23;18.10;75.80
364;DHT22;173;48.718;9.274;2022-09-03T03:07:57;18.10;74.70
364;DHT22;173;48.718;9.274;2022-09-03T03:10:27;18.10;75.30
364;DHT22;173;48.718;9.274;2022-09-03T03:12:59;17.90;74.80
364;DHT22;173;48.718;9.274;2022-09-03T03:15:31;18.00;75.50
364;DHT22;173;48.718;9.274;2022-09-03T03:20:42;17.90;75.90
364;DHT22;173;48.718;9.274;2022-09-03T03:23:15;17.80;75.00
364;DHT22;173;48.718;9.274;2022-09-03T03:25:47;17.70;76.40
364;DHT22;173;48.718;9.274;2022-09-03T03:28:19;17.70;77.30
364;DHT22;173;48.718;9.274;2022-09-03T03:30:51;17.80;76.80
364;DHT22;173;48.718;9.274;2022-09-03T03:33:23;17.80;77.00
364;DHT22;173;48.718;9.274;2022-09-03T03:35:55;17.80;76.20
364;DHT22;173;48.718;9.274;2022-09-03T03:38:27;17.70;76.70
364;DHT22;173;48.718;9.274;2022-09-03T03:41:05;17.70;77.30
364;DHT22;173;48.718;9.274;2022-09-03T03:43:37;17.60;77.10
364;DHT22;173;48.718;9.274;2022-09-03T03:46:09;17.60;77.70
364;DHT22;173;48.718;9.274;2022-09-03T03:48:39;17.60;77.60
364;DHT22;173;48.718;9.274;2022-09-03T03:53:37;17.60;77.00
364;DHT22;173;48.718;9.274;2022-09-03T03:56:11;17.50;77.80
364;DHT22;173;48.718;9.274;2022-09-03T03:58:44;17.50;77.50
364;DHT22;173;48.718;9.274;2022-09-03T04:01:18;17.60;77.40
364;DHT22;173;48.718;9.274;2022-09-03T04:03:55;17.70;76.70
364;DHT22;173;48.718;9.274;2022-09-03T04:06:28;17.70;77.30
364;DHT22;173;48.718;9.274;2022-09-03T04:09:00;17.70;77.60
364;DHT22;173;48.718;9.274;2022-09-03T04:11:32;17.70;76.60
364;DHT22;173;48.718;9.274;2022-09-03T04:14:04;17.80;76.80
364;DHT22;173;48.718;9.274;2022-09-03T04:16:34;17.70;76.50
364;DHT22;173;48.718;9.274;2022-09-03T04:19:06;17.70;77.00
364;DHT22;173;48.718;9.274;2022-09-03T04:21:36;17.60;77.10
364;DHT22;173;48.718;9.274;2022-09-03T04:24:08;17.70;77.60
364;DHT22;173;48.718;9.274;2022-09-03T04:26:40;17.70;76.80
364;DHT22;173;48.718;9.274;2022-09-03T04:29:13;17.70;77.10
364;DHT22;173;48.718;9.274;2022-09-03T04:31:45;17.70;77.50
364;DHT22;173;48.718;9.274;2022-09-03T04:34:37;17.70;77.80
364;DHT22;173;48.718;9.274;2022-09-03T04:37:09;17.50;77.90
364;DHT22;173;48.718;9.274;2022-09-03T04:39:43;17.50;77.80
364;DHT22;173;48.718;9.274;2022-09-03T04:42:15;17.50;78.40
364;DHT22;173;48.718;9.274;2022-09-03T04:44:46;17.50;78.30
364;DHT22;173;48.718;9.274;2022-09-03T04:47:18;17.50;78.50
364;DHT22;173;48.718;9.274;2022-09-03T04:49:50;17.40;78.90
364;DHT22;173;48.718;9.274;2022-09-03T04:52:22;17.40;78.60
364;DHT22;173;48.718;9.274;2022-09-03T04:54:56;17.40;78.20
364;DHT22;173;48.718;9.274;2022-09-03T05:00:10;17.50;78.10
364;DHT22;173;48.718;9.274;2022-09-03T05:02:44;17.40;78.10
364;DHT22;173;48.718;9.274;2022-09-03T05:05:18;17.40;78.50
364;DHT22;173;48.718;9.274;2022-09-03T05:07:50;17.40;78.70
364;DHT22;173;48.718;9.274;2022-09-03T05:10:22;17.40;78.80
364;DHT22;173;48.718;9.274;2022-09-03T05:13:04;17.40;78.70
364;DHT22;173;48.718;9.274;2022-09-03T05:15:36;17.50;78.70
364;DHT22;173;48.718;9.274;2022-09-03T05:18:10;17.50;79.00
364;DHT22;173;48.718;9.274;2022-09-03T05:20:42;17.50;78.80
364;DHT22;173;48.718;9.274;2022-09-03T05:23:14;17.50;79.50
364;DHT22;173;48.718;9.274;2022-09-03T05:25:56;17.50;79.50
364;DHT22;173;48.718;9.274;2022-09-03T05:28:31;17.50;79.50
364;DHT22;173;48.718;9.274;2022-09-03T05:31:05;17.60;79.50
364;DHT22;173;48.718;9.274;2022-09-03T05:33:44;17.60;79.20
364;DHT22;173;48.718;9.274;2022-09-03T05:36:17;17.70;79.00
364;DHT22;173;48.718;9.274;2022-09-03T05:38:51;17.70;78.90
364;DHT22;173;48.718;9.274;2022-09-03T05:41:24;17.80;79.10
364;DHT22;173;48.718;9.274;2022-09-03T05:43:59;17.80;79.10
364;DHT22;173;48.718;9.274;2022-09-03T05:46:34;17.80;79.00
364;DHT22;173;48.718;9.274;2022-09-03T05:49:07;17.80;78.60
364;DHT22;173;48.718;9.274;2022-09-03T05:51:39;17.80;79.00
364;DHT22;173;48.718;9.274;2022-09-03T05:54:11;17.70;79.60
364;DHT22;173;48.718;9.274;2022-09-03T05:56:43;17.60;80.20
364;DHT22;173;48.718;9.274;2022-09-03T05:59:15;17.70;80.70
364;DHT22;173;48.718;9.274;2022-09-03T06:01:47;17.70;80.80
364;DHT22;173;48.718;9.274;2022-09-03T06:04:18;17.60;80.80
364;DHT22;173;48.718;9.274;2022-09-03T06:06:50;17.50;80.90
364;DHT22;173;48.718;9.274;2022-09-03T06:09:22;17.30;81.30
364;DHT22;173;48.718;9.274;2022-09-03T06:11:54;17.30;81.60
364;DHT22;173;48.718;9.274;2022-09-03T06:14:26;17.40;82.30
364;DHT22;173;48.718;9.274;2022-09-03T06:16:58;17.40;81.50
364;DHT22;173;48.718;9.274;2022-09-03T06:19:30;17.50;81.30
364;DHT22;173;48.718;9.274;2022-09-03T06:22:02;17.40;81.40
364;DHT22;173;48.718;9.274;2022-09-03T06:24:34;17.30;81.80
364;DHT22;173;48.718;9.274;2022-09-03T06:27:08;17.40;82.50
364;DHT22;173;48.718;9.274;2022-09-03T06:29:40;17.40;82.20
364;DHT22;173;48.718;9.274;2022-09-03T06:32:12;17.50;82.00
364;DHT22;173;48.718;9.274;2022-09-03T06:34:44;17.50;82.20
364;DHT22;173;48.718;9.274;2022-09-03T06:37:16;17.40;82.60
364;DHT22;173;48.718;9.274;2022-09-03T06:39:48;17.40;82.40
364;DHT22;173;48.718;9.274;2022-09-03T06:42:21;17.40;82.70
364;DHT22;173;48.718;9.274;2022-09-03T06:44:53;17.40;83.10
364;DHT22;173;48.718;9.274;2022-09-03T06:47:25;17.50;83.70
364;DHT22;173;48.718;9.274;2022-09-03T06:49:58;17.70;83.00
364;DHT22;173;48.718;9.274;2022-09-03T06:52:30;17.70;82.60
364;DHT22;173;48.718;9.274;2022-09-03T06:55:02;17.80;82.10
364;DHT22;173;48.718;9.274;2022-09-03T06:57:35;17.90;81.80
364;DHT22;173;48.718;9.274;2022-09-03T07:00:08;18.00;81.80
364;DHT22;173;48.718;9.274;2022-09-03T07:02:40;18.10;81.20
364;DHT22;173;48.718;9.274;2022-09-03T07:05:14;18.20;80.80
364;DHT22;173;48.718;9.274;2022-09-03T07:07:46;18.30;80.30
364;DHT22;173;48.718;9.274;2022-09-03T07:10:16;18.30;80.60
364;DHT22;173;48.718;9.274;2022-09-03T07:12:48;18.20;80.80
364;DHT22;173;48.718;9.274;2022-09-03T07:15:20;18.20;81.10
364;DHT22;173;48.718;9.274;2022-09-03T07:17:52;18.30;81.10
364;DHT22;173;48.718;9.274;2022-09-03T07:20:24;18.40;80.90
364;DHT22;173;48.718;9.274;2022-09-03T07:22:56;18.60;80.30
364;DHT22;173;48.718;9.274;2022-09-03T07:25:28;18.50;80.30
364;DHT22;173;48.718;9.274;2022-09-03T07:28:00;18.60;80.90
364;DHT22;173;48.718;9.274;2022-09-03T07:30:34;18.70;80.30
364;DHT22;173;48.718;9.274;2022-09-03T07:33:06;18.80;80.20
364;DHT22;173;48.718;9.274;2022-09-03T07:37:15;18.90;80.40
364;DHT22;173;48.718;9.274;2022-09-03T07:39:47;19.10;78.80
364;DHT22;173;48.718;9.274;2022-09-03T07:42:19;19.10;79.80
364;DHT22;173;48.718;9.274;2022-09-03T07:44:53;19.20;79.50
364;DHT22;173;48.718;9.274;2022-09-03T07:47:25;19.50;79.40
364;DHT22;173;48.718;9.274;2022-09-03T07:49:57;19.60;78.10
364;DHT22;173;48.718;9.274;2022-09-03T07:52:28;19.80;77.70
364;DHT22;173;48.718;9.274;2022-09-03T07:55:00;20.00;77.40
364;DHT22;173;48.718;9.274;2022-09-03T07:57:33;20.10;76.30
364;DHT22;173;48.718;9.274;2022-09-03T08:00:06;20.20;76.70
364;DHT22;173;48.718;9.274;2022-09-03T08:02:39;20.60;77.20
364;DHT22;173;48.718;9.274;2022-09-03T08:05:12;20.90;76.10
364;DHT22;173;48.718;9.274;2022-09-03T08:07:46;21.10;74.90
364;DHT22;173;48.718;9.274;2022-09-03T08:10:18;21.30;74.80
364;DHT22;173;48.718;9.274;2022-09-03T08:12:49;21.30;73.60
364;DHT22;173;48.718;9.274;2022-09-03T08:15:21;21.20;74.60
364;DHT22;173;48.718;9.274;2022-09-03T08:17:54;21.30;73.80
364;DHT22;173;48.718;9.274;2022-09-03T08:20:27;21.20;74.40
364;DHT22;173;48.718;9.274;2022-09-03T08:23:03;21.20;74.80
364;DHT22;173;48.718;9.274;2022-09-03T08:25:35;21.30;74.10
364;DHT22;173;48.718;9.274;2022-09-03T08:28:07;21.30;74.60
364;DHT22;173;48.718;9.274;2022-09-03T08:30:37;21.60;75.60
364;DHT22;173;48.718;9.274;2022-09-03T08:33:09;22.00;73.70
364;DHT22;173;48.718;9.274;2022-09-03T08:35:41;22.30;73.30
364;DHT22;173;48.718;9.274;2022-09-03T08:38:14;22.60;72.30
364;DHT22;173;48.718;9.274;2022-09-03T08:40:46;23.40;72.10
364;DHT22;173;48.718;9.274;2022-09-03T08:43:19;23.70;68.80
364;DHT22;173;48.718;9.274;2022-09-03T08:45:51;24.00;67.50
364;DHT22;173;48.718;9.274;2022-09-03T08:48:25;24.10;67.50
364;DHT22;173;48.718;9.274;2022-09-03T08:51:00;24.00;67.80
364;DHT22;173;48.718;9.274;2022-09-03T08:53:48;24.20;66.90
364;DHT22;173;48.718;9.274;2022-09-03T08:56:29;24.10;67.80
364;DHT22;173;48.718;9.274;2022-09-03T08:59:38;24.00;67.50
364;DHT22;173;48.718;9.274;2022-09-03T09:07:59;24.50;67.00
364;DHT22;173;48.718;9.274;2022-09-03T09:21:35;23.90;70.00
364;DHT22;173;48.718;9.274;2022-09-03T09:24:24;23.90;69.40
364;DHT22;173;48.718;9.274;2022-09-03T09:27:02;23.80;68.30
364;DHT22;173;48.718;9.274;2022-09-03T09:29:37;23.60;69.40
364;DHT22;173;48.718;9.274;2022-09-03T09:32:11;23.40;69.60
364;DHT22;173;48.718;9.274;2022-09-03T09:34:44;23.30;70.60
364;DHT22;173;48.718;9.274;2022-09-03T09:37:18;23.10;71.10
364;DHT22;173;48.718;9.274;2022-09-03T09:39:56;23.30;71.00
364;DHT22;173;48.718;9.274;2022-09-03T09:42:29;23.40;70.70
364;DHT22;173;48.718;9.274;2022-09-03T09:45:09;23.50;70.10
364;DHT22;173;48.718;9.274;2022-09-03T09:47:42;23.80;71.00
364;DHT22;173;48.718;9.274;2022-09-03T09:50:19;24.70;68.50
364;DHT22;173;48.718;9.274;2022-09-03T09:52:59;25.50;66.60
364;DHT22;173;48.718;9.274;2022-09-03T09:55:35;26.30;65.60
364;DHT22;173;48.718;9.274;2022-09-03T09:58:09;26.90;61.70
364;DHT22;173;48.718;9.274;2022-09-03T10:00:41;27.20;60.30
364;DHT22;173;48.718;9.274;2022-09-03T10:03:35;26.80;60.80
364;DHT22;173;48.718;9.274;2022-09-03T10:06:11;26.60;61.20
364;DHT22;173;48.718;9.274;2022-09-03T10:09:19;26.20;63.00
364;DHT22;173;48.718;9.274;2022-09-03T10:12:23;26.10;63.90
364;DHT22;173;48.718;9.274;2022-09-03T10:15:24;25.80;65.60
364;DHT22;173;48.718;9.274;2022-09-03T10:18:01;25.70;66.20
364;DHT22;173;48.718;9.274;2022-09-03T10:21:12;25.80;65.60
364;DHT22;173;48.718;9.274;2022-09-03T10:26:56;25.70;67.50
364;DHT22;173;48.718;9.274;2022-09-03T10:29:28;25.80;66.90
364;DHT22;173;48.718;9.274;2022-09-03T10:32:03;25.60;65.50
364;DHT22;173;48.718;9.274;2022-09-03T10:34:47;25.50;67.10
364;DHT22;173;48.718;9.274;2022-09-03T10:41:03;25.20;68.50
364;DHT22;173;48.718;9.274;2022-09-03T10:44:01;25.30;67.20
364;DHT22;173;48.718;9.274;2022-09-03T10:50:25;25.00;66.50
364;DHT22;173;48.718;9.274;2022-09-03T10:53:25;24.80;67.60
364;DHT22;173;48.718;9.274;2022-09-03T11:05:19;25.60;66.20
364;DHT22;173;48.718;9.274;2022-09-03T11:08:12;25.70;65.10
364;DHT22;173;48.718;9.274;2022-09-03T11:10:54;25.70;65.60
364;DHT22;173;48.718;9.274;2022-09-03T11:13:33;25.60;66.30
364;DHT22;173;48.718;9.274;2022-09-03T11:16:14;25.40;66.70
364;DHT22;173;48.718;9.274;2022-09-03T11:19:01;25.30;67.10
364;DHT22;173;48.718;9.274;2022-09-03T11:21:33;25.00;65.90
364;DHT22;173;48.718;9.274;2022-09-03T11:24:15;24.90;67.60
364;DHT22;173;48.718;9.274;2022-09-03T11:26:52;24.90;67.10
364;DHT22;173;48.718;9.274;2022-09-03T11:29:49;24.80;68.90
364;DHT22;173;48.718;9.274;2022-09-03T11:32:41;24.60;67.90
364;DHT22;173;48.718;9.274;2022-09-03T11:35:36;24.10;68.90
364;DHT22;173;48.718;9.274;2022-09-03T11:38:03;24.30;70.60
364;DHT22;173;48.718;9.274;2022-09-03T11:40:42;24.20;70.40
364;DHT22;173;48.718;9.274;2022-09-03T11:48:44;24.00;71.30
364;DHT22;173;48.718;9.274;2022-09-03T11:51:31;23.90;72.50
364;DHT22;173;48.718;9.274;2022-09-03T11:56:50;23.60;73.70
364;DHT22;173;48.718;9.274;2022-09-03T11:59:42;23.60;73.80
364;DHT22;173;48.718;9.274;2022-09-03T12:02:24;23.50;72.40
364;DHT22;173;48.718;9.274;2022-09-03T12:11:39;23.10;76.50
364;DHT22;173;48.718;9.274;2022-09-03T12:14:20;22.90;78.40
364;DHT22;173;48.718;9.274;2022-09-03T12:17:10;22.60;81.20
364;DHT22;173;48.718;9.274;2022-09-03T12:19:56;22.40;82.30
364;DHT22;173;48.718;9.274;2022-09-03T12:22:27;22.10;84.30
364;DHT22;173;48.718;9.274;2022-09-03T12:25:06;21.20;85.80
364;DHT22;173;48.718;9.274;2022-09-03T12:27:44;20.50;87.70
364;DHT22;173;48.718;9.274;2022-09-03T12:30:21;20.00;89.00
364;DHT22;173;48.718;9.274;2022-09-03T12:33:04;19.50;91.30
364;DHT22;173;48.718;9.274;2022-09-03T12:35:36;19.10;91.90
364;DHT22;173;48.718;9.274;2022-09-03T12:38:11;18.70;93.40
364;DHT22;173;48.718;9.274;2022-09-03T12:40:43;18.40;93.70
364;DHT22;173;48.718;9.274;2022-09-03T12:43:17;18.30;94.60
364;DHT22;173;48.718;9.274;2022-09-03T12:45:50;18.20;95.50
364;DHT22;173;48.718;9.274;2022-09-03T12:48:22;18.00;95.50
364;DHT22;173;48.718;9.274;2022-09-03T12:51:02;17.90;96.90
364;DHT22;173;48.718;9.274;2022-09-03T12:53:34;17.80;97.50
364;DHT22;173;48.718;9.274;2022-09-03T12:56:08;17.80;98.50
364;DHT22;173;48.718;9.274;2022-09-03T13:01:29;17.80;98.70
364;DHT22;173;48.718;9.274;2022-09-03T13:04:16;17.70;99.50
364;DHT22;173;48.718;9.274;2022-09-03T13:09:29;17.80;99.50
364;DHT22;173;48.718;9.274;2022-09-03T13:12:03;17.90;99.50
364;DHT22;173;48.718;9.274;2022-09-03T13:17:34;18.00;99.50
364;DHT22;173;48.718;9.274;2022-09-03T13:20:47;18.00;99.50
364;DHT22;173;48.718;9.274;2022-09-03T13:28:54;18.20;99.50
364;DHT22;173;48.718;9.274;2022-09-03T13:31:39;18.40;98.50
364;DHT22;173;48.718;9.274;2022-09-03T13:34:32;18.60;98.90
364;DHT22;173;48.718;9.274;2022-09-03T13:40:03;18.90;98.10
364;DHT22;173;48.718;9.274;2022-09-03T13:42:35;19.20;97.60
364;DHT22;173;48.718;9.274;2022-09-03T13:48:07;19.30;97.80
364;DHT22;173;48.718;9.274;2022-09-03T13:51:18;19.50;96.90
364;DHT22;173;48.718;9.274;2022-09-03T13:54:24;19.50;97.10
364;DHT22;173;48.718;9.274;2022-09-03T13:57:25;19.60;97.30
364;DHT22;173;48.718;9.274;2022-09-03T14:03:04;21.70;94.40
364;DHT22;173;48.718;9.274;2022-09-03T14:06:04;22.80;87.70
364;DHT22;173;48.718;9.274;2022-09-03T14:08:58;23.10;85.10
364;DHT22;173;48.718;9.274;2022-09-03T14:20:23;24.30;81.70
364;DHT22;173;48.718;9.274;2022-09-03T14:23:25;24.40;77.90
364;DHT22;173;48.718;9.274;2022-09-03T14:26:18;24.00;79.30
364;DHT22;173;48.718;9.274;2022-09-03T14:28:57;23.80;78.10
364;DHT22;173;48.718;9.274;2022-09-03T14:31:49;23.20;80.40
364;DHT22;173;48.718;9.274;2022-09-03T14:40:16;23.80;79.40
364;DHT22;173;48.718;9.274;2022-09-03T14:46:15;25.00;76.70
364;DHT22;173;48.718;9.274;2022-09-03T14:53:13;25.50;73.90
364;DHT22;173;48.718;9.274;2022-09-03T15:01:27;23.90;78.80
364;DHT22;173;48.718;9.274;2022-09-03T15:07:15;24.90;75.90
364;DHT22;173;48.718;9.274;2022-09-03T15:10:28;25.60;73.00
364;DHT22;173;48.718;9.274;2022-09-03T15:25:32;27.50;66.10
364;DHT22;173;48.718;9.274;2022-09-03T15:28:18;27.90;66.40
364;DHT22;173;48.718;9.274;2022-09-03T15:36:53;28.20;64.70
364;DHT22;173;48.718;9.274;2022-09-03T15:39:30;27.00;65.60
364;DHT22;173;48.718;9.274;2022-09-03T15:45:06;26.50;69.50
364;DHT22;173;48.718;9.274;2022-09-03T15:50:33;26.10;67.60
364;DHT22;173;48.718;9.274;2022-09-03T15:56:05;24.80;72.80
364;DHT22;173;48.718;9.274;2022-09-03T16:05:17;23.30;77.60
364;DHT22;173;48.718;9.274;2022-09-03T16:07:57;23.10;78.90
364;DHT22;173;48.718;9.274;2022-09-03T16:11:06;23.10;79.40
364;DHT22;173;48.718;9.274;2022-09-03T16:14:05;22.80;79.80
364;DHT22;173;48.718;9.274;2022-09-03T16:20:13;22.80;80.60
364;DHT22;173;48.718;9.274;2022-09-03T16:23:06;22.80;81.10
364;DHT22;173;48.718;9.274;2022-09-03T16:28:51;22.80;80.90
364;DHT22;173;48.718;9.274;2022-09-03T16:34:30;22.60;82.00
364;DHT22;173;48.718;9.274;2022-09-03T16:37:40;22.60;83.20
364;DHT22;173;48.718;9.274;2022-09-03T16:43:28;22.60;83.20
364;DHT22;173;48.718;9.274;2022-09-03T17:00:05;22.50;84.00
364;DHT22;173;48.718;9.274;2022-09-03T17:02:47;22.50;84.80
364;DHT22;173;48.718;9.274;2022-09-03T17:09:11;22.40;85.50
364;DHT22;173;48.718;9.274;2022-09-03T17:32:06;22.30;86.60
364;DHT22;173;48.718;9.274;2022-09-03T17:43:52;21.80;90.80
364;DHT22;173;48.718;9.274;2022-09-03T17:49:29;21.60;92.10
364;DHT22;173;48.718;9.274;2022-09-03T17:52:07;21.40;92.80
364;DHT22;173;48.718;9.274;2022-09-03T17:54:57;21.30;93.20
364;DHT22;173;48.718;9.274;2022-09-03T17:57:28;21.10;93.80
364;DHT22;173;48.718;9.274;2022-09-03T18:00:06;21.00;94.50
364;DHT22;173;48.718;9.274;2022-09-03T18:02:42;20.90;94.60
364;DHT22;173;48.718;9.274;2022-09-03T18:17:06;20.40;96.10
364;DHT22;173;48.718;9.274;2022-09-03T18:19:45;20.20;96.30
364;DHT22;173;48.718;9.274;2022-09-03T18:25:59;20.30;96.20
364;DHT22;173;48.718;9.274;2022-09-03T18:28:58;20.20;96.20
364;DHT22;173;48.718;9.274;2022-09-03T18:31:56;20.10;96.60
364;DHT22;173;48.718;9.274;2022-09-03T18:34:47;20.10;96.60
364;DHT22;173;48.718;9.274;2022-09-03T18:37:37;20.00;97.00
364;DHT22;173;48.718;9.274;2022-09-03T18:43:43;19.70;97.90
364;DHT22;173;48.718;9.274;2022-09-03T18:47:39;19.60;98.50
364;DHT22;173;48.718;9.274;2022-09-03T18:50:19;19.50;98.80
364;DHT22;173;48.718;9.274;2022-09-03T18:53:41;19.50;98.60
364;DHT22;173;48.718;9.274;2022-09-03T18:56:53;19.40;98.50
364;DHT22;173;48.718;9.274;2022-09-03T19:00:06;19.20;99.00
364;DHT22;173;48.718;9.274;2022-09-03T19:03:09;19.20;99.40
364;DHT22;173;48.718;9.274;2022-09-03T19:06:13;19.10;99.20
364;DHT22;173;48.718;9.274;2022-09-03T19:15:31;19.10;99.20
364;DHT22;173;48.718;9.274;2022-09-03T19:21:40;19.10;99.30
364;DHT22;173;48.718;9.274;2022-09-03T19:24:29;19.10;99.50
364;DHT22;173;48.718;9.274;2022-09-03T19:27:46;19.00;99.50
364;DHT22;173;48.718;9.274;2022-09-03T19:31:28;19.00;99.50
364;DHT22;173;48.718;9.274;2022-09-03T19:33:51;19.00;99.50
364;DHT22;173;48.718;9.274;2022-09-03T19:37:41;19.00;99.50
364;DHT22;173;48.718;9.274;2022-09-03T19:55:35;18.80;99.50
364;DHT22;173;48.718;9.274;2022-09-03T19:58:29;18.80;99.50
364;DHT22;173;48.718;9.274;2022-09-03T20:01:21;18.80;99.50
364;DHT22;173;48.718;9.274;2022-09-03T20:04:15;18.70;99.50
364;DHT22;173;48.718;9.274;2022-09-03T20:07:07;18.70;99.50
364;DHT22;173;48.718;9.274;2022-09-03T20:10:00;18.70;99.50
364;DHT22;173;48.718;9.274;2022-09-03T20:18:52;18.60;99.50
364;DHT22;173;48.718;9.274;2022-09-03T20:33:25;18.40;99.50
364;DHT22;173;48.718;9.274;2022-09-03T20:39:27;18.40;99.50
364;DHT22;173;48.718;9.274;2022-09-03T20:45:13;18.50;99.50
364;DHT22;173;48.718;9.274;2022-09-03T20:48:03;18.50;99.50
364;DHT22;173;48.718;9.274;2022-09-03T20:56:45;18.50;99.50
364;DHT22;173;48.718;9.274;2022-09-03T20:59:20;18.50;99.50
364;DHT22;173;48.718;9.274;2022-09-03T21:02:06;18.50;99.50
364;DHT22;173;48.718;9.274;2022-09-03T21:10:53;18.40;99.50
364;DHT22;173;48.718;9.274;2022-09-03T21:16:41;18.40;99.50
364;DHT22;173;48.718;9.274;2022-09-03T21:24:57;18.70;99.50
364;DHT22;173;48.718;9.274;2022-09-03T21:27:38;18.60;99.50
364;DHT22;173;48.718;9.274;2022-09-03T21:30:19;18.60;99.50
364;DHT22;173;48.718;9.274;2022-09-03T21:32:54;18.60;99.50
364;DHT22;173;48.718;9.274;2022-09-03T21:35:33;18.50;99.50
364;DHT22;173;48.718;9.274;2022-09-03T21:38:19;18.60;99.50
364;DHT22;173;48.718;9.274;2022-09-03T21:40:58;18.60;99.50
364;DHT22;173;48.718;9.274;2022-09-03T21:46:46;18.50;99.50
364;DHT22;173;48.718;9.274;2022-09-03T21:49:33;18.60;99.50
364;DHT22;173;48.718;9.274;2022-09-03T21:52:20;18.50;99.50
364;DHT22;173;48.718;9.274;2022-09-03T21:54:53;18.60;99.50
364;DHT22;173;48.718;9.274;2022-09-03T21:57:49;18.60;99.50
364;DHT22;173;48.718;9.274;2022-09-03T22:00:26;18.60;99.50
364;DHT22;173;48.718;9.274;2022-09-03T22:03:00;18.60;99.50
364;DHT22;173;48.718;9.274;2022-09-03T22:05:43;18.60;99.50
364;DHT22;173;48.718;9.274;2022-09-03T22:08:30;18.60;99.50
364;DHT22;173;48.718;9.274;2022-09-03T22:11:25;18.50;99.50
364;DHT22;173;48.718;9.274;2022-09-03T22:14:14;18.40;99.50
364;DHT22;173;48.718;9.274;2022-09-03T22:16:48;18.20;99.50
364;DHT22;173;48.718;9.274;2022-09-03T22:19:38;18.20;99.50
364;DHT22;173;48.718;9.274;2022-09-03T22:25:02;18.00;99.50
364;DHT22;173;48.718;9.274;2022-09-03T22:27:47;17.90;99.50
364;DHT22;173;48.718;9.274;2022-09-03T22:30:20;17.90;99.50
364;DHT22;173;48.718;9.274;2022-09-03T22:35:46;17.70;99.50
364;DHT22;173;48.718;9.274;2022-09-03T22:38:39;17.70;99.50
364;DHT22;173;48.718;9.274;2022-09-03T22:50:50;17.70;99.50
364;DHT22;173;48.718;9.274;2022-09-03T22:56:22;17.70;99.50
364;DHT22;173;48.718;9.274;2022-09-03T22:59:06;17.70;99.50
364;DHT22;173;48.718;9.274;2022-09-03T23:01:48;17.70;99.50
364;DHT22;173;48.718;9.274;2022-09-03T23:10:33;17.60;99.50
364;DHT22;173;48.718;9.274;2022-09-03T23:13:42;17.60;99.50
364;DHT22;173;48.718;9.274;2022-09-03T23:16:44;17.70;99.50
364;DHT22;173;48.718;9.274;2022-09-03T23:21:55;17.70;99.50
364;DHT22;173;48.718;9.274;2022-09-03T23:24:31;17.60;99.50
364;DHT22;173;48.718;9.274;2022-09-03T23:27:07;17.60;99.50
364;DHT22;173;48.718;9.274;2022-09-03T23:29:47;17.50;99.50
364;DHT22;173;48.718;9.274;2022-09-03T23:32:21;17.40;99.50
364;DHT22;173;48.718;9.274;2022-09-03T23:34:56;17.40;99.50
364;DHT22;173;48.718;9.274;2022-09-03T23:45:53;17.40;99.50
364;DHT22;173;48.718;9.274;2022-09-03T23:57:31;17.40;99.50
